Time;durP1;ratioP1;P1;durP2;ratioP2;P2;SDS_P1;SDS_P2;PMS_P1;PMS_P2;Temp;Humidity;BMP_temperature;BMP_pressure;BME280_temperature;BME280_humidity;BME280_pressure;Samples;Min_cycle;Max_cycle;Signal;HPM_P1;HPM_P2
2022/07/19 00:01:38;;;;;;;7.90;7.40;;;18.20;88.90;;;;;;5031650;28;20183;-59
2022/07/19 00:04:04;;;;;;;7.80;7.20;;;18.10;89.80;;;;;;5035983;28;20183;-59
2022/07/19 00:06:30;;;;;;;7.57;6.80;;;18.10;90.50;;;;;;5032112;28;20817;-59
2022/07/19 00:08:56;;;;;;;7.33;6.83;;;18.00;90.80;;;;;;5044449;28;20206;-58
2022/07/19 00:11:21;;;;;;;7.70;7.20;;;18.10;90.80;;;;;;5036519;28;20486;-58
2022/07/19 00:13:47;;;;;;;7.53;7.00;;;18.00;91.10;;;;;;5037173;28;20305;-59
2022/07/19 00:16:12;;;;;;;7.20;6.70;;;18.00;91.50;;;;;;5029786;28;20205;-59
2022/07/19 00:18:38;;;;;;;7.40;7.00;;;18.00;91.80;;;;;;5032789;28;20958;-58
2022/07/19 00:21:04;;;;;;;7.47;6.97;;;17.90;92.30;;;;;;5039461;28;20191;-59
2022/07/19 00:23:30;;;;;;;7.17;6.67;;;17.80;93.00;;;;;;5027915;28;20570;-58
2022/07/19 00:25:55;;;;;;;7.30;6.70;;;17.70;93.20;;;;;;5037070;28;20197;-59
2022/07/19 00:28:21;;;;;;;7.33;6.73;;;17.70;93.70;;;;;;5050298;28;20979;-60
2022/07/19 00:30:46;;;;;;;7.43;6.93;;;17.60;94.10;;;;;;5036687;28;20268;-58
2022/07/19 00:33:12;;;;;;;7.03;6.53;;;17.60;95.00;;;;;;5041994;28;20201;-60
2022/07/19 00:35:39;;;;;;;7.53;6.93;;;17.50;95.10;;;;;;5027649;28;20198;-58
2022/07/19 00:38:09;;;;;;;7.40;6.87;;;17.50;95.70;;;;;;5030028;28;20214;-59
2022/07/19 00:40:35;;;;;;;7.30;6.60;;;17.40;96.00;;;;;;5031812;28;20420;-59
2022/07/19 00:43:01;;;;;;;7.37;6.67;;;17.40;96.80;;;;;;5034247;28;20464;-58
2022/07/19 00:45:27;;;;;;;7.20;6.60;;;17.30;96.80;;;;;;5047889;28;20833;-56
2022/07/19 00:47:53;;;;;;;7.47;7.03;;;17.30;97.10;;;;;;5029467;28;20398;-59
2022/07/19 00:50:19;;;;;;;6.93;6.50;;;17.30;96.80;;;;;;5046993;28;20218;-57
2022/07/19 00:52:50;;;;;;;7.83;7.33;;;17.30;97.00;;;;;;5027926;28;20540;-59
2022/07/19 00:55:18;;;;;;;7.03;6.57;;;17.20;97.40;;;;;;5038836;28;20416;-53
2022/07/19 00:57:45;;;;;;;7.03;6.53;;;17.20;98.20;;;;;;5036794;28;20925;-59
2022/07/19 01:00:13;;;;;;;7.00;6.47;;;17.20;98.30;;;;;;5029187;28;20545;-59
2022/07/19 01:02:39;;;;;;;7.70;7.10;;;17.20;98.60;;;;;;5029223;28;20505;-55
2022/07/19 01:05:06;;;;;;;7.60;7.00;;;17.10;98.70;;;;;;5029970;28;20883;-58
2022/07/19 01:07:34;;;;;;;7.00;6.60;;;17.20;98.70;;;;;;5027848;28;20560;-58
2022/07/19 01:10:04;;;;;;;7.40;6.80;;;17.10;98.80;;;;;;5046512;28;20510;-58
2022/07/19 01:12:31;;;;;;;7.17;6.67;;;17.10;99.10;;;;;;5028809;28;20899;-58
2022/07/19 01:14:57;;;;;;;7.40;6.90;;;17.10;99.00;;;;;;5029675;28;20419;-58
2022/07/19 01:17:23;;;;;;;7.80;7.10;;;17.00;99.10;;;;;;5027266;28;20791;-59
2022/07/19 01:19:49;;;;;;;7.47;6.87;;;17.00;99.50;;;;;;5034474;28;20452;-58
2022/07/19 01:22:15;;;;;;;7.10;6.70;;;17.00;99.70;;;;;;5031915;28;20494;-59
2022/07/19 01:24:40;;;;;;;7.70;7.10;;;17.00;99.90;;;;;;5049595;28;20277;-59
2022/07/19 01:27:07;;;;;;;10.10;7.90;;;16.90;99.90;;;;;;5029058;28;21062;-59
2022/07/19 01:29:35;;;;;;;7.13;6.63;;;16.90;99.90;;;;;;5028080;28;20221;-59
2022/07/19 01:32:01;;;;;;;7.03;6.63;;;16.80;99.90;;;;;;5031462;28;20472;-59
2022/07/19 01:34:27;;;;;;;7.60;7.00;;;16.80;99.90;;;;;;5038127;28;20466;-59
2022/07/19 01:36:52;;;;;;;7.27;6.57;;;16.80;99.90;;;;;;5034559;28;20192;-56
2022/07/19 01:39:18;;;;;;;7.60;7.00;;;16.70;99.90;;;;;;5032581;28;20315;-57
2022/07/19 01:41:43;;;;;;;7.53;7.03;;;16.70;99.90;;;;;;5026817;28;20184;-58
2022/07/19 01:44:09;;;;;;;7.20;6.53;;;16.60;99.90;;;;;;5029374;28;20272;-58
2022/07/19 01:46:34;;;;;;;7.07;6.50;;;16.60;99.90;;;;;;5025902;28;20192;-58
2022/07/19 01:49:00;;;;;;;7.20;6.60;;;16.60;99.90;;;;;;5035155;28;20223;-58
2022/07/19 01:51:25;;;;;;;7.33;6.83;;;16.60;99.90;;;;;;5026104;28;20230;-59
2022/07/19 01:53:51;;;;;;;7.20;6.70;;;16.60;99.90;;;;;;5020916;28;20200;-57
2022/07/19 01:56:17;;;;;;;7.20;6.80;;;16.50;99.90;;;;;;5021249;28;20285;-58
2022/07/19 01:58:42;;;;;;;7.60;7.00;;;16.50;99.90;;;;;;5035423;28;20243;-57
2022/07/19 02:01:08;;;;;;;6.73;6.23;;;16.50;99.90;;;;;;5040014;28;20196;-58
2022/07/19 02:03:33;;;;;;;7.30;6.80;;;16.50;99.90;;;;;;5046555;28;20196;-58
2022/07/19 02:05:59;;;;;;;7.80;7.20;;;16.50;99.90;;;;;;5043010;28;20189;-59
2022/07/19 02:08:25;;;;;;;7.27;6.77;;;16.40;99.90;;;;;;5032080;28;20212;-58
2022/07/19 02:10:50;;;;;;;6.80;6.40;;;16.40;99.90;;;;;;5042772;28;20260;-58
2022/07/19 02:13:16;;;;;;;8.93;6.83;;;16.30;99.90;;;;;;5041211;28;20213;-58
2022/07/19 02:15:42;;;;;;;6.97;6.47;;;16.40;99.90;;;;;;5028027;28;20473;-58
2022/07/19 02:18:07;;;;;;;7.17;6.67;;;16.30;99.90;;;;;;5010587;28;20190;-59
2022/07/19 02:20:33;;;;;;;6.90;6.50;;;16.30;99.90;;;;;;5041999;28;20201;-58
2022/07/19 02:22:58;;;;;;;6.97;6.47;;;16.20;99.90;;;;;;5025616;28;20181;-57
2022/07/19 02:25:24;;;;;;;7.50;7.00;;;16.20;99.90;;;;;;5045414;28;20279;-58
2022/07/19 02:27:50;;;;;;;7.37;6.73;;;16.20;99.90;;;;;;5034764;28;20237;-59
2022/07/19 02:30:17;;;;;;;7.13;6.73;;;16.20;99.90;;;;;;5027586;28;20941;-58
2022/07/19 02:32:43;;;;;;;7.47;6.87;;;16.10;99.90;;;;;;5023325;28;20188;-58
2022/07/19 02:35:10;;;;;;;7.70;7.10;;;16.10;99.90;;;;;;5010664;28;20503;-58
2022/07/19 02:37:37;;;;;;;6.80;6.40;;;16.00;99.90;;;;;;5021911;28;20982;-58
2022/07/19 02:40:03;;;;;;;7.20;6.60;;;16.00;99.90;;;;;;5040501;28;20445;-58
2022/07/19 02:42:29;;;;;;;7.20;6.60;;;16.00;99.90;;;;;;5028168;28;20536;-57
2022/07/19 02:44:54;;;;;;;7.27;6.87;;;16.00;99.90;;;;;;5028090;28;20454;-58
2022/07/19 02:47:20;;;;;;;7.70;7.10;;;15.90;99.90;;;;;;5028266;28;20200;-58
2022/07/19 02:49:45;;;;;;;7.63;7.07;;;15.90;99.90;;;;;;5027204;28;20788;-58
2022/07/19 02:52:11;;;;;;;7.47;6.97;;;15.90;99.90;;;;;;5028275;28;20202;-58
2022/07/19 02:54:37;;;;;;;7.70;7.10;;;15.90;99.90;;;;;;5026503;28;20207;-58
2022/07/19 02:57:03;;;;;;;6.87;6.47;;;15.90;99.90;;;;;;5029100;28;20620;-56
2022/07/19 02:59:28;;;;;;;7.10;6.70;;;15.90;99.90;;;;;;5034155;28;20472;-57
2022/07/19 03:01:54;;;;;;;7.77;7.07;;;15.80;99.90;;;;;;5027845;28;20191;-58
2022/07/19 03:04:20;;;;;;;7.20;6.60;;;15.80;99.90;;;;;;5026503;28;20192;-58
2022/07/19 03:06:45;;;;;;;7.17;6.67;;;15.80;99.90;;;;;;5029600;28;20765;-54
2022/07/19 03:09:11;;;;;;;7.07;6.47;;;15.80;99.90;;;;;;5030631;28;20214;-58
2022/07/19 03:11:37;;;;;;;7.50;7.00;;;15.80;99.90;;;;;;5031222;28;20186;-58
2022/07/19 03:14:03;;;;;;;7.63;7.07;;;15.80;99.90;;;;;;5030265;28;20795;-58
2022/07/19 03:16:28;;;;;;;7.70;7.00;;;15.70;99.90;;;;;;5031582;28;20187;-58
2022/07/19 03:18:54;;;;;;;7.83;7.23;;;15.70;99.90;;;;;;5030062;28;20191;-57
2022/07/19 03:21:20;;;;;;;7.33;6.83;;;15.70;99.90;;;;;;5031414;28;20191;-58
2022/07/19 03:23:45;;;;;;;6.93;6.43;;;15.70;99.90;;;;;;5029895;28;20202;-57
2022/07/19 03:26:11;;;;;;;6.80;6.30;;;15.70;99.90;;;;;;5030452;28;20278;-58
2022/07/19 03:28:37;;;;;;;6.77;6.30;;;15.70;99.90;;;;;;5034652;28;20234;-53
2022/07/19 03:31:03;;;;;;;6.90;6.30;;;15.80;99.90;;;;;;5028197;28;20191;-58
2022/07/19 03:33:29;;;;;;;7.07;6.57;;;15.80;99.90;;;;;;5030177;28;20239;-58
2022/07/19 03:35:55;;;;;;;7.10;6.40;;;15.80;99.90;;;;;;5030595;28;20186;-58
2022/07/19 03:38:20;;;;;;;8.03;7.40;;;15.70;99.90;;;;;;5031471;28;20901;-55
2022/07/19 03:40:47;;;;;;;7.50;6.83;;;15.80;99.90;;;;;;5039529;28;20183;-53
2022/07/19 03:43:14;;;;;;;7.30;6.70;;;15.80;99.90;;;;;;5022706;28;20798;-58
2022/07/19 03:45:40;;;;;;;7.37;6.87;;;15.80;99.90;;;;;;5043058;28;20797;-58
2022/07/19 03:48:06;;;;;;;7.97;7.37;;;15.80;99.90;;;;;;5030645;28;20438;-58
2022/07/19 03:50:32;;;;;;;7.60;6.90;;;15.80;99.90;;;;;;5029613;28;21810;-58
2022/07/19 03:52:57;;;;;;;7.60;7.00;;;15.80;99.90;;;;;;5028399;28;20201;-58
2022/07/19 03:55:23;;;;;;;7.47;6.93;;;15.80;99.90;;;;;;5030769;28;20198;-58
2022/07/19 03:57:49;;;;;;;7.27;6.77;;;15.80;99.90;;;;;;5033749;28;20242;-59
2022/07/19 04:00:14;;;;;;;7.60;6.90;;;15.90;99.90;;;;;;5039064;28;20192;-59
2022/07/19 04:02:40;;;;;;;7.33;6.83;;;15.90;99.90;;;;;;5028475;28;20620;-54
2022/07/19 04:05:07;;;;;;;7.13;6.63;;;15.90;99.90;;;;;;5041814;28;20202;-57
2022/07/19 04:07:33;;;;;;;7.13;6.53;;;15.90;99.90;;;;;;5042442;28;20543;-58
2022/07/19 04:09:59;;;;;;;7.30;6.60;;;16.00;99.90;;;;;;5033493;28;20470;-59
2022/07/19 04:12:24;;;;;;;6.83;6.33;;;16.00;99.90;;;;;;5027622;28;20443;-58
2022/07/19 04:14:50;;;;;;;7.33;6.70;;;16.00;99.90;;;;;;5033437;28;20209;-59
2022/07/19 04:17:17;;;;;;;7.00;6.50;;;16.00;99.90;;;;;;5026125;28;20191;-59
2022/07/19 04:19:42;;;;;;;7.73;7.13;;;16.00;99.90;;;;;;5024030;28;20188;-58
2022/07/19 04:22:08;;;;;;;7.23;6.73;;;16.00;99.90;;;;;;5035047;28;20454;-59
2022/07/19 04:24:34;;;;;;;8.23;7.30;;;16.00;99.90;;;;;;5034265;28;20714;-59
2022/07/19 04:26:59;;;;;;;8.30;7.50;;;16.10;99.90;;;;;;5035558;28;20274;-58
2022/07/19 04:29:25;;;;;;;6.90;6.40;;;16.10;99.90;;;;;;5035290;28;20214;-59
2022/07/19 04:31:50;;;;;;;7.43;6.93;;;16.20;99.90;;;;;;5021481;28;20192;-59
2022/07/19 04:34:16;;;;;;;7.50;7.00;;;16.20;99.90;;;;;;5020212;28;20187;-58
2022/07/19 04:36:42;;;;;;;7.57;7.07;;;16.20;99.90;;;;;;5028983;28;20298;-59
2022/07/19 04:39:07;;;;;;;7.53;7.00;;;16.20;99.90;;;;;;5020457;28;20195;-59
2022/07/19 04:41:33;;;;;;;7.47;6.97;;;16.40;99.90;;;;;;5022490;28;20193;-59
2022/07/19 04:43:58;;;;;;;7.30;6.80;;;16.40;99.90;;;;;;5037082;28;20196;-59
2022/07/19 04:46:24;;;;;;;7.50;7.00;;;16.50;99.90;;;;;;5028627;28;20748;-59
2022/07/19 04:48:49;;;;;;;7.90;7.30;;;16.70;99.90;;;;;;5028293;28;20214;-59
2022/07/19 04:51:15;;;;;;;7.33;6.70;;;16.70;99.90;;;;;;5029295;28;20193;-59
2022/07/19 04:53:40;;;;;;;8.17;7.47;;;16.80;99.90;;;;;;5030388;28;20184;-59
2022/07/19 04:56:06;;;;;;;7.23;6.70;;;16.90;99.90;;;;;;5029769;28;20581;-59
2022/07/19 04:58:32;;;;;;;7.53;7.03;;;17.00;99.90;;;;;;5029941;28;20261;-60
2022/07/19 05:00:57;;;;;;;7.60;7.00;;;17.10;99.90;;;;;;5027505;28;20217;-59
2022/07/19 05:03:23;;;;;;;8.10;6.90;;;17.20;99.90;;;;;;5029029;28;20205;-59
2022/07/19 05:05:49;;;;;;;7.13;6.70;;;17.30;99.90;;;;;;5029074;28;20225;-59
2022/07/19 05:08:15;;;;;;;7.50;7.00;;;17.40;99.90;;;;;;5028906;28;20189;-59
2022/07/19 05:10:40;;;;;;;7.90;7.10;;;17.50;99.90;;;;;;5029198;28;20317;-59
2022/07/19 05:13:06;;;;;;;7.60;6.90;;;17.70;99.90;;;;;;5029958;28;20413;-58
2022/07/19 05:15:32;;;;;;;7.90;7.30;;;17.80;99.90;;;;;;5029363;28;20270;-59
2022/07/19 05:17:57;;;;;;;7.77;7.20;;;17.90;99.90;;;;;;5029985;28;20264;-56
2022/07/19 05:20:23;;;;;;;8.23;6.80;;;18.00;99.50;;;;;;5029096;28;20913;-59
2022/07/19 05:22:49;;;;;;;7.60;7.00;;;18.10;99.30;;;;;;5029923;28;20183;-58
2022/07/19 05:25:16;;;;;;;7.17;6.30;;;18.30;98.90;;;;;;5027892;28;20194;-59
2022/07/19 05:27:43;;;;;;;6.80;6.40;;;18.30;98.60;;;;;;5031938;28;20430;-58
2022/07/19 05:30:09;;;;;;;7.50;6.93;;;18.40;98.50;;;;;;5033947;28;20495;-58
2022/07/19 05:32:35;;;;;;;7.37;6.67;;;18.50;98.00;;;;;;5036923;28;20416;-55
2022/07/19 05:35:01;;;;;;;6.63;6.13;;;18.80;97.70;;;;;;5027685;28;20468;-58
2022/07/19 05:37:26;;;;;;;7.60;7.10;;;18.80;97.50;;;;;;5015882;28;20191;-58
2022/07/19 05:39:52;;;;;;;7.13;6.63;;;18.90;97.20;;;;;;5046001;28;20221;-58
2022/07/19 05:42:17;;;;;;;8.50;7.73;;;19.00;97.10;;;;;;5030468;28;20202;-59
2022/07/19 05:44:43;;;;;;;7.07;6.53;;;19.10;96.70;;;;;;5029957;28;20198;-59
2022/07/19 05:47:09;;;;;;;6.77;6.30;;;19.30;96.30;;;;;;5030586;28;20187;-54
2022/07/19 05:49:34;;;;;;;7.00;6.53;;;19.40;95.80;;;;;;5034462;28;20214;-59
2022/07/19 05:52:00;;;;;;;7.30;6.70;;;19.50;95.50;;;;;;5032784;28;20247;-58
2022/07/19 05:54:25;;;;;;;6.40;6.00;;;19.60;95.20;;;;;;5034701;28;20225;-58
2022/07/19 05:56:51;;;;;;;6.97;6.53;;;19.70;95.20;;;;;;5034742;28;20260;-57
2022/07/19 05:59:20;;;;;;;7.40;6.90;;;19.80;94.70;;;;;;5028001;28;20285;-58
2022/07/19 06:01:46;;;;;;;6.87;6.27;;;19.90;94.50;;;;;;5033758;28;20638;-59
2022/07/19 06:04:12;;;;;;;7.63;7.07;;;20.10;93.70;;;;;;5034312;28;20439;-56
2022/07/19 06:06:37;;;;;;;6.93;6.40;;;20.30;93.20;;;;;;5037646;28;20421;-57
2022/07/19 06:09:04;;;;;;;6.87;6.47;;;20.40;93.00;;;;;;5036307;28;20214;-54
2022/07/19 06:11:30;;;;;;;7.00;6.40;;;20.50;92.70;;;;;;5028531;28;20378;-57
2022/07/19 06:13:56;;;;;;;7.30;6.43;;;20.50;92.70;;;;;;5028789;28;20418;-56
2022/07/19 06:16:22;;;;;;;8.17;7.53;;;20.70;92.20;;;;;;5035517;28;20434;-56
2022/07/19 06:18:48;;;;;;;7.10;6.67;;;20.90;91.70;;;;;;5032864;28;20445;-56
2022/07/19 06:21:17;;;;;;;7.30;6.80;;;21.10;91.30;;;;;;5024868;28;20462;-55
2022/07/19 06:23:43;;;;;;;6.80;6.20;;;21.30;90.90;;;;;;5044881;28;20187;-58
2022/07/19 06:26:10;;;;;;;7.23;6.73;;;21.30;90.40;;;;;;5041573;28;20503;-56
2022/07/19 06:28:35;;;;;;;7.47;6.97;;;21.50;90.20;;;;;;5030804;28;20559;-57
2022/07/19 06:31:01;;;;;;;9.97;7.03;;;21.70;89.50;;;;;;5034159;28;20425;-58
2022/07/19 06:33:27;;;;;;;6.20;5.80;;;21.80;87.60;;;;;;5032502;28;20656;-57
2022/07/19 06:35:53;;;;;;;6.37;5.97;;;22.00;86.20;;;;;;5032767;28;20258;-57
2022/07/19 06:38:18;;;;;;;6.90;6.50;;;22.20;84.90;;;;;;5027832;28;20180;-56
2022/07/19 06:40:44;;;;;;;6.60;6.10;;;22.20;83.70;;;;;;5031476;28;20430;-57
2022/07/19 06:43:10;;;;;;;7.20;6.60;;;22.30;83.00;;;;;;5040922;28;20228;-58
2022/07/19 06:45:38;;;;;;;6.90;6.50;;;22.50;82.50;;;;;;5037374;28;20259;-57
2022/07/19 06:48:04;;;;;;;7.50;6.90;;;22.60;81.80;;;;;;5041740;28;20432;-55
2022/07/19 06:50:29;;;;;;;7.23;6.70;;;22.70;79.10;;;;;;5038247;28;20476;-57
2022/07/19 06:52:55;;;;;;;7.07;6.57;;;22.80;79.00;;;;;;5034859;28;20434;-57
2022/07/19 06:55:21;;;;;;;6.80;6.30;;;23.10;78.20;;;;;;5040948;28;20738;-57
2022/07/19 06:57:46;;;;;;;6.67;6.00;;;23.20;76.40;;;;;;5039167;28;20179;-57
2022/07/19 07:00:13;;;;;;;7.50;6.70;;;23.40;75.00;;;;;;5040223;28;20882;-57
2022/07/19 07:02:40;;;;;;;6.87;6.37;;;23.60;73.60;;;;;;5033423;28;20188;-57
2022/07/19 07:05:07;;;;;;;6.90;6.43;;;23.70;71.90;;;;;;5036887;28;20452;-57
2022/07/19 07:07:34;;;;;;;6.40;5.90;;;23.90;70.10;;;;;;5031899;28;20430;-57
2022/07/19 07:10:01;;;;;;;6.27;5.87;;;24.00;69.30;;;;;;5034811;28;20507;-57
2022/07/19 07:12:28;;;;;;;7.60;6.90;;;24.30;68.10;;;;;;5031799;28;20472;-57
2022/07/19 07:14:53;;;;;;;6.60;6.20;;;24.40;65.50;;;;;;5027250;28;20507;-57
2022/07/19 07:17:19;;;;;;;6.23;5.83;;;24.50;64.80;;;;;;5034952;28;20414;-57
2022/07/19 07:19:45;;;;;;;6.50;6.00;;;24.70;63.80;;;;;;5040652;28;20262;-57
2022/07/19 07:22:10;;;;;;;6.33;5.83;;;24.80;61.80;;;;;;5041371;28;20200;-58
2022/07/19 07:24:36;;;;;;;6.40;5.93;;;25.00;60.80;;;;;;5043426;28;20244;-57
2022/07/19 07:27:02;;;;;;;6.57;6.03;;;25.10;59.70;;;;;;5034721;28;20227;-57
2022/07/19 07:29:27;;;;;;;7.33;6.83;;;25.30;58.30;;;;;;5044416;28;20209;-58
2022/07/19 07:31:53;;;;;;;6.50;6.10;;;25.50;57.10;;;;;;5040511;28;20189;-58
2022/07/19 07:34:19;;;;;;;7.50;6.90;;;25.70;55.80;;;;;;5033464;28;20222;-59
2022/07/19 07:36:44;;;;;;;6.80;6.40;;;25.70;55.70;;;;;;5040678;28;20605;-59
2022/07/19 07:39:11;;;;;;;6.03;5.50;;;25.90;55.90;;;;;;5036651;28;20226;-57
2022/07/19 07:41:36;;;;;;;6.87;6.07;;;26.10;54.70;;;;;;5040085;28;20197;-59
2022/07/19 07:44:03;;;;;;;6.97;6.20;;;26.20;52.80;;;;;;5046083;28;20435;-58
2022/07/19 07:46:28;;;;;;;7.30;6.70;;;26.40;52.80;;;;;;5049705;28;20198;-58
2022/07/19 07:48:54;;;;;;;7.23;6.63;;;26.50;52.70;;;;;;5048732;28;20498;-59
2022/07/19 07:51:19;;;;;;;6.90;6.50;;;26.70;50.80;;;;;;5039555;28;20190;-58
2022/07/19 07:53:45;;;;;;;6.70;6.30;;;26.90;48.60;;;;;;5041624;28;20198;-59
2022/07/19 07:56:11;;;;;;;6.67;5.77;;;27.10;48.00;;;;;;5030624;28;20213;-59
2022/07/19 07:58:37;;;;;;;6.80;6.30;;;27.30;47.60;;;;;;5029346;28;20242;-58
2022/07/19 08:01:03;;;;;;;6.87;6.43;;;27.40;46.90;;;;;;5040895;28;20191;-58
2022/07/19 08:03:28;;;;;;;7.83;7.13;;;27.60;46.80;;;;;;5041627;28;20953;-58
2022/07/19 08:05:54;;;;;;;7.27;6.67;;;27.70;46.00;;;;;;5028681;28;20205;-59
2022/07/19 08:08:20;;;;;;;6.90;6.10;;;27.90;96.90;;;;;;5027109;28;20187;-59
2022/07/19 08:10:45;;;;;;;6.50;6.00;;;28.10;96.30;;;;;;5026450;28;20210;-59
2022/07/19 08:13:11;;;;;;;6.90;6.00;;;28.30;95.20;;;;;;5038664;28;20225;-59
2022/07/19 08:15:37;;;;;;;6.63;6.23;;;28.40;93.40;;;;;;5046987;28;20181;-59
2022/07/19 08:18:03;;;;;;;6.07;5.67;;;28.60;91.50;;;;;;5037736;28;20197;-59
2022/07/19 08:20:29;;;;;;;6.80;6.20;;;28.80;90.00;;;;;;5048571;28;20436;-59
2022/07/19 08:22:55;;;;;;;6.80;6.30;;;29.00;88.90;;;;;;5037599;28;20552;-59
2022/07/19 08:25:20;;;;;;;7.00;6.60;;;29.30;83.30;;;;;;5028975;28;20282;-59
2022/07/19 08:27:46;;;;;;;6.97;6.37;;;29.40;79.90;;;;;;5031031;28;20194;-59
2022/07/19 08:30:13;;;;;;;6.63;6.23;;;29.70;75.50;;;;;;5038595;28;20313;-58
2022/07/19 08:32:39;;;;;;;6.43;5.73;;;29.80;68.30;;;;;;5035063;28;20186;-58
2022/07/19 08:35:06;;;;;;;7.00;6.50;;;29.90;66.00;;;;;;5038436;28;20910;-59
2022/07/19 08:37:32;;;;;;;6.93;6.53;;;30.00;62.70;;;;;;5039186;28;20839;-57
2022/07/19 08:39:57;;;;;;;6.07;5.67;;;30.20;59.80;;;;;;5027573;28;20540;-58
2022/07/19 08:42:24;;;;;;;6.30;6.00;;;30.30;60.10;;;;;;5041345;28;20201;-54
2022/07/19 08:44:51;;;;;;;6.83;6.43;;;30.40;56.20;;;;;;5034160;28;20208;-59
2022/07/19 08:47:21;;;;;;;6.43;5.97;;;30.60;54.10;;;;;;5047938;28;20421;-59
2022/07/19 08:49:48;;;;;;;7.10;6.70;;;30.70;52.10;;;;;;5032779;28;21066;-59
2022/07/19 08:52:14;;;;;;;6.20;5.90;;;30.80;49.30;;;;;;5047867;28;20431;-57
2022/07/19 08:54:40;;;;;;;6.43;5.93;;;30.90;46.20;;;;;;5029143;28;20437;-59
2022/07/19 08:59:51;;;;;;;6.90;6.30;;;31.20;44.00;;;;;;5030978;28;20493;-59
2022/07/19 09:02:17;;;;;;;6.80;6.40;;;31.40;43.80;;;;;;5038163;28;20425;-59
2022/07/19 09:04:43;;;;;;;6.93;6.50;;;31.50;42.40;;;;;;5027507;28;20206;-54
2022/07/19 09:07:08;;;;;;;7.57;6.93;;;31.70;40.90;;;;;;5039771;28;20428;-59
2022/07/19 09:09:36;;;;;;;6.60;6.20;;;32.00;39.00;;;;;;5029973;28;20465;-59
2022/07/19 09:12:04;;;;;;;7.03;6.53;;;32.20;38.00;;;;;;5029846;28;20175;-59
2022/07/19 09:14:32;;;;;;;6.07;5.73;;;32.30;37.50;;;;;;5027730;28;20495;-59
2022/07/19 09:17:16;;;;;;;6.77;6.37;;;32.50;36.90;;;;;;5028408;28;21346;-58
2022/07/19 09:19:44;;;;;;;6.83;6.43;;;32.60;47.10;;;;;;5027608;28;20808;-58
2022/07/19 09:22:15;;;;;;;7.43;6.80;;;32.70;33.30;;;;;;5029518;28;20876;-58
2022/07/19 09:24:43;;;;;;;7.00;6.47;;;32.60;31.70;;;;;;5028514;28;20434;-59
2022/07/19 09:27:11;;;;;;;6.80;6.30;;;32.70;32.10;;;;;;5031458;28;20437;-59
2022/07/19 09:29:48;;;;;;;6.17;5.87;;;32.70;30.40;;;;;;5039939;28;20994;-60
2022/07/19 09:32:19;;;;;;;6.53;6.13;;;32.80;30.00;;;;;;5040045;28;20815;-59
2022/07/19 09:34:56;;;;;;;6.53;6.13;;;32.90;28.30;;;;;;5043101;28;20464;-59
2022/07/19 09:37:28;;;;;;;6.20;5.90;;;33.00;28.40;;;;;;5040302;28;20413;-58
2022/07/19 09:39:55;;;;;;;7.60;6.10;;;33.10;27.50;;;;;;5041656;28;20448;-58
2022/07/19 09:42:33;;;;;;;6.60;6.20;;;33.30;26.50;;;;;;5037946;28;20499;-59
2022/07/19 09:45:01;;;;;;;5.70;5.40;;;33.30;25.90;;;;;;5030260;28;20942;-59
2022/07/19 09:47:35;;;;;;;6.37;6.00;;;33.40;25.00;;;;;;5033970;28;20492;-58
2022/07/19 09:50:04;;;;;;;5.93;5.60;;;33.60;25.90;;;;;;5032093;28;20453;-58
2022/07/19 09:52:30;;;;;;;6.57;6.17;;;33.80;24.90;;;;;;5045646;28;20495;-60
2022/07/19 09:54:57;;;;;;;6.33;5.97;;;34.10;24.80;;;;;;5031064;28;20423;-59
2022/07/19 09:57:24;;;;;;;6.90;6.53;;;34.30;24.40;;;;;;5047103;28;20408;-58
2022/07/19 09:59:54;;;;;;;6.40;6.00;;;34.50;22.70;;;;;;5039820;28;20535;-56
2022/07/19 10:02:22;;;;;;;6.30;6.00;;;34.60;22.00;;;;;;5027103;28;20434;-56
2022/07/19 10:04:48;;;;;;;6.87;6.33;;;34.60;20.20;;;;;;5027473;28;20440;-59
2022/07/19 10:07:16;;;;;;;6.87;6.47;;;34.60;20.50;;;;;;5045262;28;20527;-59
2022/07/19 10:09:43;;;;;;;6.73;6.43;;;34.80;19.80;;;;;;5035129;28;21183;-60
2022/07/19 10:12:08;;;;;;;6.97;6.47;;;34.90;19.10;;;;;;5026894;28;20418;-60
2022/07/19 10:14:35;;;;;;;6.83;6.43;;;34.90;17.70;;;;;;5025728;28;20769;-59
2022/07/19 10:17:20;;;;;;;6.73;6.40;;;35.00;17.90;;;;;;5037684;28;20718;-59
2022/07/19 10:19:48;;;;;;;6.63;6.33;;;35.10;17.80;;;;;;5031003;28;20449;-59
2022/07/19 10:22:25;;;;;;;6.57;6.17;;;35.10;16.10;;;;;;5035076;28;20461;-59
2022/07/19 10:24:59;;;;;;;7.00;6.60;;;35.20;16.50;;;;;;5044422;28;20442;-59
2022/07/19 10:27:24;;;;;;;7.70;7.20;;;35.40;15.20;;;;;;5032933;28;20445;-59
2022/07/19 10:30:10;;;;;;;6.97;6.33;;;35.50;15.20;;;;;;5029278;28;20503;-59
2022/07/19 10:32:36;;;;;;;7.20;6.70;;;35.60;14.30;;;;;;5032392;28;20183;-59
2022/07/19 10:35:22;;;;;;;6.97;6.67;;;35.60;13.70;;;;;;5039920;28;20420;-59
2022/07/19 10:38:00;;;;;;;6.93;6.50;;;35.80;12.90;;;;;;5047773;28;20426;-59
2022/07/19 10:40:44;;;;;;;7.47;7.07;;;35.80;12.00;;;;;;5032420;28;20527;-59
2022/07/19 10:43:14;;;;;;;6.90;6.50;;;36.00;11.10;;;;;;5034373;28;20890;-59
2022/07/19 10:45:57;;;;;;;7.10;6.70;;;36.10;11.20;;;;;;5029403;28;20460;-59
2022/07/19 10:48:47;;;;;;;7.57;7.00;;;36.10;10.50;;;;;;5040154;28;20491;-59
2022/07/19 10:51:34;;;;;;;7.80;7.17;;;36.30;9.70;;;;;;5028567;28;20443;-59
2022/07/19 10:54:03;;;;;;;7.00;6.50;;;36.30;8.70;;;;;;5029481;28;20536;-59
2022/07/19 10:56:56;;;;;;;7.17;6.67;;;36.40;8.50;;;;;;5029639;28;20486;-59
2022/07/19 10:59:39;;;;;;;7.00;6.60;;;36.30;9.20;;;;;;5042871;28;20515;-58
2022/07/19 11:02:05;;;;;;;6.93;6.33;;;36.40;7.40;;;;;;5029471;28;20491;-59
2022/07/19 11:04:33;;;;;;;6.57;6.20;;;36.40;7.50;;;;;;5045579;28;20425;-59
2022/07/19 11:07:22;;;;;;;6.67;6.20;;;36.40;6.70;;;;;;5039087;28;20935;-59
2022/07/19 11:09:51;;;;;;;6.77;6.40;;;36.40;6.30;;;;;;5045689;28;21348;-59
2022/07/19 11:12:32;;;;;;;7.50;7.07;;;36.50;5.60;;;;;;5042734;28;20446;-59
2022/07/19 11:15:00;;;;;;;7.10;6.60;;;36.50;5.50;;;;;;5050226;28;20427;-59
2022/07/19 11:17:26;;;;;;;7.27;6.53;;;36.70;5.30;;;;;;5038035;28;21256;-59
2022/07/19 11:19:58;;;;;;;7.03;6.33;;;36.70;4.60;;;;;;5043920;28;20420;-59
2022/07/19 11:22:24;;;;;;;7.37;6.40;;;36.90;4.20;;;;;;5029526;28;20191;-59
2022/07/19 11:24:50;;;;;;;7.40;6.90;;;37.00;4.20;;;;;;5027985;28;20456;-58
2022/07/19 11:27:16;;;;;;;7.70;7.20;;;37.10;3.30;;;;;;5039741;28;20193;-59
2022/07/19 11:29:59;;;;;;;7.03;6.63;;;37.20;3.50;;;;;;5033936;28;20213;-58
2022/07/19 11:32:25;;;;;;;7.23;6.73;;;37.30;3.60;;;;;;5028911;28;20422;-59
2022/07/19 11:35:00;;;;;;;6.87;6.40;;;37.40;2.40;;;;;;5046404;28;20425;-58
2022/07/19 11:37:28;;;;;;;7.30;6.90;;;37.60;2.10;;;;;;5029755;28;20938;-59
2022/07/19 11:39:54;;;;;;;7.47;6.87;;;37.60;1.90;;;;;;5047948;28;20413;-59
2022/07/19 11:42:30;;;;;;;7.70;6.97;;;37.70;1.80;;;;;;5040532;28;20439;-59
2022/07/19 11:44:55;;;;;;;7.23;6.83;;;37.70;2.20;;;;;;5033481;28;20464;-58
2022/07/19 11:47:21;;;;;;;7.37;6.90;;;37.90;1.70;;;;;;5025905;28;20512;-59
2022/07/19 11:49:47;;;;;;;6.40;6.10;;;38.10;1.00;;;;;;5046433;28;20297;-57
2022/07/19 11:52:12;;;;;;;7.93;7.33;;;38.20;1.00;;;;;;5042025;28;20186;-58
2022/07/19 11:54:38;;;;;;;7.30;7.00;;;38.40;1.00;;;;;;5046336;28;20193;-59
2022/07/19 11:57:04;;;;;;;8.00;7.50;;;38.50;1.00;;;;;;5032295;28;20183;-59
2022/07/19 11:59:30;;;;;;;7.43;7.03;;;38.50;1.00;;;;;;5049075;28;20303;-59
2022/07/19 12:01:59;;;;;;;7.47;7.07;;;38.60;1.00;;;;;;5035855;28;20885;-59
2022/07/19 12:04:24;;;;;;;8.80;8.20;;;38.70;1.00;;;;;;5044840;28;20194;-58
2022/07/19 12:06:52;;;;;;;8.60;7.97;;;38.70;1.00;;;;;;5046466;28;20437;-59
2022/07/19 12:09:28;;;;;;;8.07;7.57;;;38.80;1.00;;;;;;5049060;28;20209;-59
2022/07/19 12:11:55;;;;;;;7.90;7.50;;;38.80;1.00;;;;;;5036701;28;20436;-59
2022/07/19 12:14:21;;;;;;;7.90;7.30;;;38.80;1.00;;;;;;5045081;28;20565;-59
2022/07/19 12:16:48;;;;;;;8.67;8.07;;;38.70;1.00;;;;;;5047621;28;20527;-60
2022/07/19 12:19:17;;;;;;;8.77;8.27;;;38.90;1.00;;;;;;5048861;28;20201;-59
2022/07/19 12:21:44;;;;;;;8.07;7.53;;;39.00;1.00;;;;;;5037135;28;20440;-59
2022/07/19 12:24:24;;;;;;;8.37;7.77;;;39.10;1.00;;;;;;5028988;28;20771;-58
2022/07/19 12:27:05;;;;;;;8.50;7.93;;;39.10;1.00;;;;;;5026957;28;20449;-59
2022/07/19 12:29:33;;;;;;;7.57;7.17;;;39.30;1.00;;;;;;5031352;28;20557;-57
2022/07/19 12:32:07;;;;;;;7.67;7.03;;;39.40;1.00;;;;;;5040949;28;20425;-59
2022/07/19 12:34:56;;;;;;;8.20;7.70;;;39.50;1.00;;;;;;5028726;28;20433;-58
2022/07/19 12:37:30;;;;;;;8.03;7.47;;;39.70;4.70;;;;;;5027881;28;21029;-58
2022/07/19 12:40:20;;;;;;;8.80;8.10;;;39.70;1.00;;;;;;5046453;28;20451;-59
2022/07/19 12:42:48;;;;;;;8.67;8.07;;;39.80;1.00;;;;;;5039352;28;20454;-59
2022/07/19 12:45:20;;;;;;;7.60;7.20;;;39.90;1.00;;;;;;5027775;28;20449;-60
2022/07/19 12:47:46;;;;;;;7.67;7.17;;;40.10;1.00;;;;;;5042054;28;20923;-60
2022/07/19 12:50:40;;;;;;;7.73;7.27;;;40.40;1.00;;;;;;5028829;28;20461;-59
2022/07/19 12:53:08;;;;;;;7.67;7.07;;;40.70;1.00;;;;;;5027354;28;20429;-60